Time;durP1;ratioP1;P1;durP2;ratioP2;P2;SDS_P1;SDS_P2;PMS_P1;PMS_P2;Temp;Humidity;BMP_temperature;BMP_pressure;BME280_temperature;BME280_humidity;BME280_pressure;Samples;Min_cycle;Max_cycle;Signal;HPM_P1;HPM_P2
2022/10/30 00:01:32;;;;;;;240.37;80.10;;;12.50;99.90;;;;;;5144409;27;20727;-48
2022/10/30 00:04:00;;;;;;;542.90;263.07;;;12.50;99.90;;;;;;5148542;27;20202;-50
2022/10/30 00:06:28;;;;;;;268.00;81.73;;;12.50;99.90;;;;;;5150495;27;20297;-49
2022/10/30 00:08:56;;;;;;;1015.67;427.37;;;12.50;99.90;;;;;;5149237;27;20225;-50
2022/10/30 00:11:24;;;;;;;1019.47;455.10;;;12.50;99.90;;;;;;5150257;27;20293;-49
2022/10/30 00:13:52;;;;;;;503.13;178.57;;;12.50;99.90;;;;;;5150203;27;20205;-49
2022/10/30 00:16:20;;;;;;;536.83;159.23;;;12.50;99.90;;;;;;5148385;27;20293;-50
2022/10/30 00:18:50;;;;;;;912.40;381.67;;;12.50;99.90;;;;;;5152467;27;20222;-50
2022/10/30 00:21:19;;;;;;;719.87;274.80;;;12.50;99.90;;;;;;5140237;27;20238;-49
2022/10/30 00:23:48;;;;;;;330.37;101.73;;;12.60;99.90;;;;;;5144438;27;20203;-49
2022/10/30 00:26:19;;;;;;;872.00;394.57;;;12.50;99.90;;;;;;5148775;27;20909;-50
2022/10/30 00:28:50;;;;;;;443.23;161.70;;;12.50;99.90;;;;;;5135277;27;20262;-49
2022/10/30 00:31:19;;;;;;;480.17;179.97;;;12.50;99.90;;;;;;5154200;27;20289;-49
2022/10/30 00:33:50;;;;;;;280.63;103.97;;;12.50;99.90;;;;;;5147424;27;20238;-49
2022/10/30 00:36:19;;;;;;;676.30;239.20;;;12.50;99.90;;;;;;5155002;27;20198;-50
2022/10/30 00:38:47;;;;;;;244.63;106.43;;;12.50;99.90;;;;;;5144218;27;20645;-49
2022/10/30 00:41:17;;;;;;;599.17;238.27;;;12.50;99.90;;;;;;5149332;27;20285;-50
2022/10/30 00:43:45;;;;;;;450.23;172.57;;;12.50;99.90;;;;;;5153682;27;20245;-49
2022/10/30 00:46:20;;;;;;;736.47;304.07;;;12.50;99.90;;;;;;5153397;27;20230;-50
2022/10/30 00:48:55;;;;;;;753.83;337.50;;;12.50;99.90;;;;;;5134934;27;20309;-49
2022/10/30 00:51:25;;;;;;;385.33;143.90;;;12.50;99.90;;;;;;5148426;27;20280;-49
2022/10/30 00:53:54;;;;;;;751.67;274.70;;;12.50;99.90;;;;;;5148510;27;20302;-49
2022/10/30 00:56:24;;;;;;;732.50;290.43;;;12.50;99.90;;;;;;5153514;27;20780;-49
2022/10/30 00:58:57;;;;;;;519.67;141.40;;;12.50;99.90;;;;;;5137973;27;20249;-49
2022/10/30 01:01:28;;;;;;;1231.77;519.90;;;12.50;99.90;;;;;;5152394;27;20285;-50
2022/10/30 01:04:01;;;;;;;617.70;237.00;;;12.40;99.90;;;;;;5152035;27;20199;-49
2022/10/30 01:06:32;;;;;;;192.13;64.87;;;12.40;99.90;;;;;;5139107;27;20657;-49
2022/10/30 01:09:01;;;;;;;416.00;116.70;;;12.40;99.90;;;;;;5152369;27;20228;-49
2022/10/30 01:11:29;;;;;;;1172.37;595.80;;;12.40;99.90;;;;;;5146068;27;20237;-49
2022/10/30 01:14:01;;;;;;;362.60;99.33;;;12.40;99.90;;;;;;5152894;27;20667;-49
2022/10/30 01:17:06;;;;;;;237.33;85.90;;;12.40;99.90;;;;;;5152808;27;21005;-50
2022/10/30 01:19:42;;;;;;;405.47;192.10;;;12.40;99.90;;;;;;5129179;27;20301;-50
2022/10/30 01:22:29;;;;;;;676.90;235.90;;;12.40;99.90;;;;;;5143480;27;20230;-49
2022/10/30 01:25:07;;;;;;;174.20;42.60;;;12.40;99.90;;;;;;5152910;27;20244;-50
2022/10/30 01:27:43;;;;;;;333.03;146.53;;;12.30;99.90;;;;;;5138103;27;20242;-50
2022/10/30 01:30:20;;;;;;;377.27;178.40;;;12.30;99.90;;;;;;5142570;27;20229;-49
2022/10/30 01:32:59;;;;;;;307.53;114.03;;;12.30;99.90;;;;;;5151733;27;20705;-49
2022/10/30 01:35:37;;;;;;;311.20;94.77;;;12.20;99.90;;;;;;5148070;27;20213;-49
2022/10/30 01:38:11;;;;;;;538.53;226.80;;;12.20;99.90;;;;;;5122718;27;20326;-50
2022/10/30 01:40:39;;;;;;;489.20;246.07;;;12.10;99.90;;;;;;5141677;27;20743;-49
2022/10/30 01:43:09;;;;;;;111.70;46.57;;;12.10;99.90;;;;;;5137583;27;20277;-50
2022/10/30 01:45:58;;;;;;;359.83;80.87;;;12.10;99.90;;;;;;5131771;27;20230;-50
2022/10/30 01:48:47;;;;;;;199.60;82.80;;;12.10;99.90;;;;;;5130801;27;20318;-49
2022/10/30 01:51:26;;;;;;;461.70;188.17;;;12.10;99.90;;;;;;5131572;27;20285;-50
2022/10/30 01:54:04;;;;;;;524.63;222.17;;;12.10;99.90;;;;;;5118136;27;20209;-50
2022/10/30 01:56:38;;;;;;;305.10;109.60;;;12.10;99.90;;;;;;5131673;27;20230;-50
2022/10/30 01:59:13;;;;;;;156.33;47.07;;;12.10;99.90;;;;;;5130440;27;20218;-48
2022/10/30 02:01:41;;;;;;;387.33;147.33;;;12.10;99.90;;;;;;5131993;27;20194;-50
2022/10/30 02:04:12;;;;;;;403.67;159.40;;;12.10;99.90;;;;;;5132560;27;20257;-49
2022/10/30 02:06:42;;;;;;;330.17;120.17;;;12.20;99.90;;;;;;5133636;27;20238;-50
2022/10/30 02:09:10;;;;;;;231.97;95.20;;;12.10;99.90;;;;;;5130629;27;20243;-49
2022/10/30 02:11:39;;;;;;;723.23;273.60;;;12.10;99.90;;;;;;5130894;27;20557;-48
2022/10/30 02:14:09;;;;;;;570.97;218.57;;;12.00;99.90;;;;;;5130798;27;20241;-49
2022/10/30 02:16:42;;;;;;;648.43;248.90;;;12.00;99.90;;;;;;5131413;27;20289;-50
2022/10/30 02:19:10;;;;;;;770.47;337.87;;;12.00;99.90;;;;;;5130014;27;20298;-47
2022/10/30 02:21:40;;;;;;;495.90;188.57;;;12.00;99.90;;;;;;5124306;27;20214;-49
2022/10/30 02:24:08;;;;;;;352.23;118.97;;;11.90;99.90;;;;;;5129213;27;20205;-50
2022/10/30 02:26:37;;;;;;;496.53;196.47;;;11.80;99.90;;;;;;5131527;27;20237;-50
2022/10/30 02:29:05;;;;;;;327.07;155.20;;;11.80;99.90;;;;;;5119541;27;20234;-50
2022/10/30 02:31:33;;;;;;;277.60;124.50;;;11.80;99.90;;;;;;5130048;27;20211;-50
2022/10/30 02:34:01;;;;;;;207.70;72.97;;;11.70;99.90;;;;;;5127686;27;20213;-50
2022/10/30 02:36:29;;;;;;;428.77;187.87;;;11.60;99.90;;;;;;5131247;27;20294;-49
2022/10/30 02:38:59;;;;;;;680.87;300.87;;;11.60;99.90;;;;;;5130186;27;20314;-50
2022/10/30 02:41:27;;;;;;;159.70;54.73;;;11.60;99.90;;;;;;5130596;27;21069;-50
2022/10/30 02:43:55;;;;;;;217.23;79.90;;;11.60;99.90;;;;;;5130702;27;20310;-49
2022/10/30 02:46:23;;;;;;;172.70;62.97;;;11.50;99.90;;;;;;5130430;27;20245;-49
2022/10/30 02:48:51;;;;;;;382.23;188.30;;;11.50;99.90;;;;;;5129895;27;20313;-49
2022/10/30 02:51:19;;;;;;;219.50;90.00;;;11.60;99.90;;;;;;5130964;27;20207;-48
2022/10/30 02:53:47;;;;;;;478.77;182.73;;;11.50;99.90;;;;;;5129930;27;20293;-50
2022/10/30 02:56:17;;;;;;;324.73;128.47;;;11.50;99.90;;;;;;5130225;27;20294;-49
2022/10/30 02:58:46;;;;;;;654.80;236.03;;;11.50;99.90;;;;;;5128899;27;20322;-50
2022/10/30 03:01:15;;;;;;;336.70;146.23;;;11.50;99.90;;;;;;5130490;27;20209;-50
2022/10/30 03:03:44;;;;;;;254.70;86.80;;;11.50;99.90;;;;;;5128920;27;20232;-50
2022/10/30 03:06:15;;;;;;;267.63;95.63;;;11.50;99.90;;;;;;5130183;27;20293;-47
2022/10/30 03:08:44;;;;;;;189.83;52.47;;;11.50;99.90;;;;;;5119018;27;20285;-49
2022/10/30 03:11:14;;;;;;;361.90;123.10;;;11.50;99.90;;;;;;5129348;27;20257;-50
2022/10/30 03:13:44;;;;;;;520.67;257.07;;;11.50;99.90;;;;;;5130080;27;20289;-50
2022/10/30 03:16:14;;;;;;;182.80;74.13;;;11.50;99.90;;;;;;5130074;27;20230;-49
2022/10/30 03:18:42;;;;;;;289.73;107.03;;;11.40;99.90;;;;;;5129447;27;20246;-49
2022/10/30 03:21:12;;;;;;;228.10;101.37;;;11.40;99.90;;;;;;5127575;27;20283;-50
2022/10/30 03:23:41;;;;;;;83.87;32.30;;;11.40;99.90;;;;;;5126128;27;20326;-49
2022/10/30 03:26:09;;;;;;;522.53;217.20;;;11.50;99.90;;;;;;5129922;27;20615;-49
2022/10/30 03:28:37;;;;;;;794.03;343.07;;;11.50;99.90;;;;;;5118746;27;20322;-50
2022/10/30 03:31:08;;;;;;;45.00;22.47;;;11.40;99.90;;;;;;5130337;27;20218;-49
2022/10/30 03:33:37;;;;;;;56.87;23.50;;;11.40;99.90;;;;;;5128242;27;20245;-50
2022/10/30 03:36:07;;;;;;;119.33;41.30;;;11.40;99.90;;;;;;5129614;27;20683;-49
2022/10/30 03:38:36;;;;;;;797.30;436.83;;;11.40;99.90;;;;;;5129743;27;20258;-49
2022/10/30 03:41:05;;;;;;;385.13;170.93;;;11.30;99.90;;;;;;5129818;27;20226;-49
2022/10/30 03:43:33;;;;;;;417.63;169.57;;;11.30;99.90;;;;;;5129857;27;20257;-49
2022/10/30 03:46:01;;;;;;;510.00;213.77;;;11.20;99.90;;;;;;5127177;27;20680;-50
2022/10/30 03:48:31;;;;;;;283.37;101.73;;;11.20;99.90;;;;;;5127255;27;20313;-50
2022/10/30 03:51:00;;;;;;;77.43;25.60;;;11.20;99.90;;;;;;5128956;27;20250;-49
2022/10/30 03:53:29;;;;;;;394.87;168.23;;;11.20;99.90;;;;;;5135757;27;20246;-50
2022/10/30 03:56:01;;;;;;;142.07;56.80;;;11.20;99.90;;;;;;5136448;27;20294;-50
2022/10/30 03:58:30;;;;;;;111.63;65.50;;;11.20;99.90;;;;;;5135568;27;20227;-50
2022/10/30 04:01:01;;;;;;;154.10;57.77;;;11.20;99.90;;;;;;5136436;27;20750;-50
2022/10/30 04:03:31;;;;;;;453.60;169.87;;;11.10;99.90;;;;;;5135550;27;20686;-50
2022/10/30 04:05:59;;;;;;;141.07;47.57;;;11.10;99.90;;;;;;5135893;27;20603;-49
2022/10/30 04:08:27;;;;;;;188.77;83.60;;;11.10;99.90;;;;;;5136171;27;20230;-49
2022/10/30 04:10:55;;;;;;;96.03;35.07;;;11.00;99.90;;;;;;5135917;27;20245;-48
2022/10/30 04:13:23;;;;;;;360.73;211.37;;;11.10;99.90;;;;;;5135240;27;20245;-50
2022/10/30 04:15:52;;;;;;;117.83;53.83;;;11.10;99.90;;;;;;5135933;27;20711;-49
2022/10/30 04:18:25;;;;;;;464.47;179.53;;;11.10;99.90;;;;;;5134835;27;20223;-49
2022/10/30 04:20:55;;;;;;;57.30;26.40;;;11.10;99.90;;;;;;5135860;27;20868;-50
2022/10/30 04:23:23;;;;;;;426.20;183.20;;;11.20;99.90;;;;;;5130094;27;20249;-49
2022/10/30 04:25:51;;;;;;;105.53;40.83;;;11.20;99.90;;;;;;5136059;27;20195;-49
2022/10/30 04:28:20;;;;;;;223.97;98.77;;;11.10;99.90;;;;;;5126483;27;20235;-49
2022/10/30 04:30:48;;;;;;;453.60;143.70;;;11.20;99.90;;;;;;5135582;27;20607;-49
2022/10/30 04:33:17;;;;;;;308.40;107.23;;;11.20;99.90;;;;;;5135078;27;20206;-49
2022/10/30 04:35:45;;;;;;;113.67;62.70;;;11.20;99.90;;;;;;5134891;27;20286;-50
2022/10/30 04:38:17;;;;;;;295.50;107.23;;;11.20;99.90;;;;;;5135736;27;20304;-50
2022/10/30 04:40:47;;;;;;;360.00;124.70;;;11.20;99.90;;;;;;5136976;27;20195;-49
2022/10/30 04:43:15;;;;;;;571.90;181.80;;;11.20;99.90;;;;;;5136942;27;20237;-50
2022/10/30 04:45:43;;;;;;;374.00;128.93;;;11.20;99.90;;;;;;5136105;27;20282;-50
2022/10/30 04:48:13;;;;;;;92.10;50.07;;;11.10;99.90;;;;;;5142160;27;20691;-49
2022/10/30 04:50:42;;;;;;;361.97;149.87;;;11.10;99.90;;;;;;5135498;27;20310;-49
2022/10/30 04:53:13;;;;;;;437.90;161.53;;;11.10;99.90;;;;;;5136185;27;20306;-50
2022/10/30 04:55:44;;;;;;;95.70;37.37;;;11.10;99.90;;;;;;5136482;27;20549;-50
2022/10/30 04:58:13;;;;;;;413.63;159.20;;;11.00;99.90;;;;;;5135166;27;20195;-49
2022/10/30 05:00:41;;;;;;;107.60;43.57;;;11.00;99.90;;;;;;5135946;27;20647;-50
2022/10/30 05:03:16;;;;;;;384.60;171.13;;;11.00;99.90;;;;;;5131681;27;20644;-49
2022/10/30 05:05:45;;;;;;;435.73;163.67;;;10.90;99.90;;;;;;5133207;27;20230;-49
2022/10/30 05:08:13;;;;;;;220.10;88.23;;;10.90;99.90;;;;;;5131328;27;20262;-50
2022/10/30 05:10:42;;;;;;;164.33;73.87;;;10.90;99.90;;;;;;5132665;27;20309;-49
2022/10/30 05:13:11;;;;;;;679.70;253.90;;;10.90;99.90;;;;;;5131779;27;20230;-50
2022/10/30 05:15:39;;;;;;;517.77;253.80;;;10.80;99.90;;;;;;5131966;27;20576;-49
2022/10/30 05:18:07;;;;;;;265.00;120.37;;;10.80;99.90;;;;;;5131302;27;20221;-49
2022/10/30 05:20:35;;;;;;;78.30;44.13;;;10.80;99.90;;;;;;5132391;27;20207;-50
2022/10/30 05:23:04;;;;;;;200.33;76.60;;;10.80;99.90;;;;;;5125254;27;20245;-50
2022/10/30 05:25:32;;;;;;;182.17;72.87;;;10.80;99.90;;;;;;5132354;27;20293;-49
2022/10/30 05:28:02;;;;;;;168.00;59.47;;;10.90;99.90;;;;;;5124660;27;20290;-49
2022/10/30 05:30:32;;;;;;;340.33;117.07;;;10.80;99.90;;;;;;5131646;27;20250;-49
2022/10/30 05:33:02;;;;;;;252.60;94.80;;;10.90;99.90;;;;;;5142268;27;20225;-50
2022/10/30 05:35:32;;;;;;;473.00;242.33;;;10.80;99.90;;;;;;5149221;27;20202;-52
2022/10/30 05:38:01;;;;;;;739.00;233.10;;;10.80;99.90;;;;;;5146429;27;20606;-52
2022/10/30 05:40:29;;;;;;;626.53;256.63;;;10.80;99.90;;;;;;5149489;27;20199;-52
2022/10/30 05:42:57;;;;;;;365.67;104.27;;;10.80;99.90;;;;;;5147639;27;20854;-52
2022/10/30 05:45:27;;;;;;;643.50;195.87;;;10.80;99.90;;;;;;5142700;27;20233;-51
2022/10/30 05:47:56;;;;;;;532.70;178.57;;;10.90;99.90;;;;;;5148180;27;20233;-51
2022/10/30 05:50:26;;;;;;;990.87;228.23;;;10.90;99.90;;;;;;5137338;27;20208;-53
2022/10/30 05:52:56;;;;;;;650.27;231.90;;;11.00;99.90;;;;;;5137957;27;20289;-49
2022/10/30 05:55:25;;;;;;;188.90;67.53;;;11.10;99.90;;;;;;5146801;27;20646;-50
2022/10/30 05:57:56;;;;;;;563.60;157.83;;;11.10;99.90;;;;;;5143032;27;20237;-49
2022/10/30 06:00:27;;;;;;;923.50;228.57;;;11.20;99.90;;;;;;5129783;27;20233;-50
2022/10/30 06:03:00;;;;;;;657.20;165.43;;;11.30;99.90;;;;;;5127374;27;20293;-50
2022/10/30 06:05:31;;;;;;;1031.00;264.77;;;11.30;99.90;;;;;;5138981;27;20667;-50
2022/10/30 06:07:59;;;;;;;735.23;194.27;;;11.30;99.90;;;;;;5126647;27;20274;-50
2022/10/30 06:10:28;;;;;;;323.80;93.53;;;11.30;99.90;;;;;;5129302;27;20257;-49
2022/10/30 06:12:57;;;;;;;684.03;205.73;;;11.30;99.90;;;;;;5117532;27;20227;-50
2022/10/30 06:15:28;;;;;;;848.87;211.40;;;11.30;99.90;;;;;;5109383;27;20199;-50
2022/10/30 06:17:57;;;;;;;363.83;124.73;;;11.30;99.90;;;;;;5112974;27;20245;-49
2022/10/30 06:20:28;;;;;;;500.90;161.83;;;11.20;99.90;;;;;;5112515;27;20199;-50
2022/10/30 06:22:58;;;;;;;701.63;313.40;;;11.20;99.90;;;;;;5116688;27;20222;-50
2022/10/30 06:25:27;;;;;;;293.47;114.13;;;11.10;99.90;;;;;;5110503;27;20741;-50
2022/10/30 06:27:55;;;;;;;555.50;218.67;;;11.20;99.90;;;;;;5116746;27;20303;-50
2022/10/30 06:30:24;;;;;;;482.33;184.30;;;11.10;99.90;;;;;;5120077;27;20218;-50
2022/10/30 06:32:58;;;;;;;163.77;53.40;;;11.10;99.90;;;;;;5123859;27;20221;-48
2022/10/30 06:35:27;;;;;;;380.33;123.87;;;11.10;99.90;;;;;;5126486;27;20206;-50
2022/10/30 06:37:58;;;;;;;303.50;121.73;;;11.00;99.90;;;;;;5129595;27;20222;-50
2022/10/30 06:40:28;;;;;;;314.10;114.03;;;11.00;99.90;;;;;;5120396;27;20213;-49
2022/10/30 06:42:57;;;;;;;178.33;65.20;;;10.90;99.90;;;;;;5118733;27;20199;-50
2022/10/30 06:45:26;;;;;;;877.17;471.00;;;10.90;99.90;;;;;;5121451;27;20202;-50
2022/10/30 06:47:54;;;;;;;183.40;100.07;;;10.90;99.90;;;;;;5122276;27;20617;-50
2022/10/30 06:50:24;;;;;;;1157.70;565.13;;;10.90;99.90;;;;;;5113560;27;20195;-50
2022/10/30 06:52:54;;;;;;;539.60;210.97;;;10.90;99.90;;;;;;5111507;27;20207;-50
2022/10/30 06:55:22;;;;;;;351.60;165.43;;;11.00;99.90;;;;;;5116269;27;20302;-50
2022/10/30 06:57:54;;;;;;;319.47;160.43;;;11.00;99.90;;;;;;5110531;27;20200;-50
2022/10/30 07:00:23;;;;;;;651.17;358.87;;;11.00;99.90;;;;;;5111501;27;20688;-50
2022/10/30 07:02:58;;;;;;;51.57;30.37;;;11.10;99.90;;;;;;5104501;27;20282;-50
2022/10/30 07:05:29;;;;;;;523.93;213.40;;;11.10;99.90;;;;;;5127907;27;20828;-49
2022/10/30 07:07:58;;;;;;;701.23;258.10;;;11.10;99.90;;;;;;5122761;27;20290;-50
2022/10/30 07:10:26;;;;;;;107.73;39.07;;;11.20;99.90;;;;;;5129800;27;20238;-49
2022/10/30 07:12:55;;;;;;;511.67;242.97;;;11.30;99.90;;;;;;5128926;27;20298;-52
2022/10/30 07:15:24;;;;;;;386.83;135.57;;;11.40;99.90;;;;;;5128796;27;20663;-52
2022/10/30 07:17:57;;;;;;;311.67;114.17;;;11.40;99.90;;;;;;5129356;27;20213;-53
2022/10/30 07:20:30;;;;;;;402.27;156.97;;;11.40;99.90;;;;;;5129459;27;20683;-53
2022/10/30 07:22:58;;;;;;;461.57;157.00;;;11.50;99.90;;;;;;5122118;27;20203;-52
2022/10/30 07:25:26;;;;;;;269.20;97.80;;;11.50;99.90;;;;;;5122070;27;20258;-53
2022/10/30 07:27:55;;;;;;;522.80;212.07;;;11.60;99.90;;;;;;5111064;27;20254;-53
2022/10/30 07:30:26;;;;;;;430.40;161.03;;;11.60;99.90;;;;;;5124604;27;20281;-52
2022/10/30 07:33:00;;;;;;;500.57;173.87;;;11.70;99.90;;;;;;5130352;27;20210;-53
2022/10/30 07:35:31;;;;;;;395.90;159.87;;;11.80;99.90;;;;;;5108396;27;20208;-53
2022/10/30 07:38:03;;;;;;;983.77;427.00;;;11.80;99.90;;;;;;5128734;27;20272;-53
2022/10/30 07:40:32;;;;;;;729.00;305.33;;;11.80;99.90;;;;;;5127874;27;20203;-51
2022/10/30 07:43:01;;;;;;;677.77;278.40;;;11.90;99.90;;;;;;5126820;27;20610;-52
2022/10/30 07:45:31;;;;;;;415.70;127.47;;;11.90;99.90;;;;;;5129284;27;20563;-52
2022/10/30 07:47:59;;;;;;;739.37;307.80;;;12.00;99.90;;;;;;5128875;27;20275;-53
2022/10/30 07:50:28;;;;;;;823.83;307.67;;;12.10;99.90;;;;;;5129567;28;20565;-53
2022/10/30 07:52:57;;;;;;;605.67;247.97;;;12.10;99.90;;;;;;5128153;28;20313;-52
2022/10/30 07:55:25;;;;;;;543.20;198.37;;;12.20;99.90;;;;;;5129073;28;20657;-53
2022/10/30 07:57:54;;;;;;;451.30;152.43;;;12.20;99.90;;;;;;5129179;28;20306;-53
2022/10/30 08:00:22;;;;;;;1601.50;591.73;;;12.30;99.90;;;;;;5129028;28;20203;-53
2022/10/30 08:02:51;;;;;;;936.07;361.57;;;12.40;99.90;;;;;;5128290;27;20675;-52
2022/10/30 08:05:19;;;;;;;491.77;190.90;;;12.40;99.90;;;;;;5129218;28;20210;-50
2022/10/30 08:07:56;;;;;;;718.67;304.10;;;12.50;99.90;;;;;;5129041;28;20202;-50
2022/10/30 08:10:25;;;;;;;1006.23;397.57;;;12.60;99.90;;;;;;5116259;27;20303;-50
2022/10/30 08:12:54;;;;;;;612.77;211.83;;;12.70;99.90;;;;;;5128963;28;20223;-50
2022/10/30 08:15:22;;;;;;;774.70;265.40;;;12.70;99.90;;;;;;5129503;28;20203;-52
2022/10/30 08:17:51;;;;;;;646.30;237.07;;;12.80;99.90;;;;;;5127490;28;20287;-53
2022/10/30 08:20:23;;;;;;;1287.23;496.30;;;12.80;99.90;;;;;;5127480;28;20338;-52
2022/10/30 08:22:52;;;;;;;878.87;316.90;;;12.90;99.90;;;;;;5126065;28;20195;-53
2022/10/30 08:25:26;;;;;;;1049.53;377.73;;;13.00;99.90;;;;;;5127959;27;20286;-52
2022/10/30 08:27:56;;;;;;;1265.07;416.30;;;13.10;99.90;;;;;;5124720;27;20825;-51
2022/10/30 08:30:25;;;;;;;1083.33;362.67;;;13.10;99.90;;;;;;5123236;27;20290;-50
2022/10/30 08:32:57;;;;;;;893.50;364.97;;;13.20;99.90;;;;;;5124985;27;20227;-50
2022/10/30 08:35:26;;;;;;;778.97;285.87;;;13.20;99.90;;;;;;5119127;27;20210;-50
2022/10/30 08:37:55;;;;;;;854.13;346.50;;;13.20;99.90;;;;;;5126496;27;20294;-51
2022/10/30 08:40:26;;;;;;;784.60;228.70;;;13.20;99.90;;;;;;5131229;27;20199;-50
2022/10/30 08:42:55;;;;;;;553.17;140.70;;;13.30;99.90;;;;;;5130419;27;20203;-51
2022/10/30 08:45:25;;;;;;;1170.70;414.33;;;13.40;99.90;;;;;;5132087;27;20262;-51
2022/10/30 08:47:59;;;;;;;1027.23;294.23;;;13.40;99.90;;;;;;5127472;27;20289;-51
2022/10/30 08:50:28;;;;;;;1383.53;450.97;;;13.50;99.90;;;;;;5130836;27;20199;-51
2022/10/30 08:52:56;;;;;;;1072.63;309.70;;;13.60;99.90;;;;;;5126863;27;20223;-52
2022/10/30 08:55:26;;;;;;;738.73;270.63;;;13.70;99.90;;;;;;5126329;27;20211;-50
2022/10/30 08:57:54;;;;;;;1062.13;349.00;;;13.70;99.90;;;;;;5123036;27;20238;-51
2022/10/30 09:00:22;;;;;;;758.20;220.50;;;13.80;99.90;;;;;;5129768;27;20285;-51
2022/10/30 09:02:51;;;;;;;1231.73;358.93;;;13.90;99.90;;;;;;5126768;27;20199;-50
2022/10/30 09:05:19;;;;;;;929.53;233.93;;;14.00;99.90;;;;;;5127425;27;20238;-50
2022/10/30 09:07:47;;;;;;;938.83;264.43;;;14.00;99.90;;;;;;5125133;27;20246;-52
2022/10/30 09:10:15;;;;;;;828.87;247.17;;;14.00;99.90;;;;;;5127054;27;20225;-50
2022/10/30 09:12:45;;;;;;;856.67;262.23;;;14.10;99.90;;;;;;5122577;27;20262;-51
2022/10/30 09:15:13;;;;;;;919.67;220.93;;;14.20;99.90;;;;;;5119802;27;20623;-51
2022/10/30 09:17:41;;;;;;;998.47;270.20;;;14.40;99.90;;;;;;5121669;27;20278;-52
2022/10/30 09:20:10;;;;;;;897.80;252.23;;;14.40;99.90;;;;;;5122595;27;20346;-51
2022/10/30 09:22:41;;;;;;;964.63;248.40;;;14.60;99.90;;;;;;5130148;27;20747;-51
2022/10/30 09:25:09;;;;;;;1426.10;443.83;;;14.60;99.90;;;;;;5130408;27;20277;-51
2022/10/30 09:27:38;;;;;;;995.47;298.97;;;14.70;99.90;;;;;;5126890;27;20221;-50
2022/10/30 09:30:09;;;;;;;1172.90;351.70;;;14.80;99.90;;;;;;5119690;27;20227;-51
2022/10/30 09:32:37;;;;;;;1755.88;528.33;;;14.90;99.90;;;;;;5117381;27;20228;-51
2022/10/30 09:35:06;;;;;;;1213.17;393.23;;;14.90;99.90;;;;;;5123925;27;20213;-51
2022/10/30 09:37:35;;;;;;;1268.03;368.97;;;15.00;99.90;;;;;;5128577;27;20230;-51
2022/10/30 09:40:03;;;;;;;1490.30;537.13;;;15.00;99.90;;;;;;5119453;27;20255;-51
2022/10/30 09:42:42;;;;;;;1498.43;447.87;;;15.10;99.90;;;;;;5120504;27;20231;-50
2022/10/30 09:45:53;;;;;;;1011.00;353.13;;;15.10;99.90;;;;;;5125629;27;20226;-50
2022/10/30 09:48:47;;;;;;;985.25;364.73;;;15.10;99.90;;;;;;5128513;27;20313;-51
2022/10/30 09:51:33;;;;;;;1244.93;368.67;;;15.20;99.90;;;;;;5129101;27;20209;-49
2022/10/30 09:54:11;;;;;;;1231.63;392.10;;;15.30;99.90;;;;;;5122264;27;20245;-50
2022/10/30 09:56:44;;;;;;;1117.90;500.23;;;15.30;99.90;;;;;;5128355;27;20234;-51
2022/10/30 09:59:24;;;;;;;1448.22;493.40;;;15.40;99.90;;;;;;5126453;27;20262;-51
2022/10/30 10:02:01;;;;;;;1556.22;527.17;;;15.50;99.90;;;;;;5129901;27;20203;-51
2022/10/30 10:04:38;;;;;;;1426.82;441.60;;;15.50;99.90;;;;;;5128029;27;20667;-51
2022/10/30 10:07:14;;;;;;;1374.75;401.92;;;15.50;99.90;;;;;;5132812;27;20483;-51
2022/10/30 10:09:44;;;;;;;1430.38;484.67;;;15.60;99.90;;;;;;5125474;27;20305;-51
2022/10/30 10:12:23;;;;;;;1576.60;559.83;;;15.60;99.90;;;;;;5119369;27;20210;-51
2022/10/30 10:14:52;;;;;;;1529.30;528.33;;;15.60;99.90;;;;;;5122275;27;20242;-52
2022/10/30 10:17:30;;;;;;;1367.90;417.02;;;15.70;99.90;;;;;;5126065;27;20723;-51
2022/10/30 10:19:59;;;;;;;1098.22;401.45;;;15.80;99.90;;;;;;5129331;27;20261;-52
2022/10/30 10:22:35;;;;;;;1493.43;537.92;;;15.90;99.90;;;;;;5126339;27;20237;-51
2022/10/30 10:25:12;;;;;;;1999.90;544.10;;;15.90;99.90;;;;;;5115841;27;20199;-52
2022/10/30 10:27:56;;;;;;;1207.75;380.73;;;15.90;99.90;;;;;;5125514;27;20297;-51
2022/10/30 10:30:25;;;;;;;1696.63;550.88;;;16.00;99.90;;;;;;5125349;27;20285;-52
2022/10/30 10:33:36;;;;;;;1660.53;636.47;;;16.00;99.90;;;;;;5126114;27;20217;-52
2022/10/30 10:36:16;;;;;;;986.15;328.42;;;16.00;99.90;;;;;;5115255;27;20282;-52
2022/10/30 10:39:06;;;;;;;1595.97;511.50;;;16.10;99.90;;;;;;5119689;27;20742;-51
2022/10/30 10:41:53;;;;;;;1354.60;400.27;;;16.10;99.90;;;;;;5119373;27;20231;-51
2022/10/30 10:44:33;;;;;;;1569.07;513.72;;;16.10;99.90;;;;;;5130670;27;20321;-51
2022/10/30 10:47:16;;;;;;;1631.80;514.83;;;16.20;99.90;;;;;;5124830;27;20226;-51
2022/10/30 10:50:03;;;;;;;1785.45;531.25;;;16.30;99.90;;;;;;5126151;27;20232;-52
2022/10/30 10:52:38;;;;;;;1348.68;475.75;;;16.40;99.90;;;;;;5125059;27;20220;-51
2022/10/30 10:55:14;;;;;;;1594.57;534.47;;;16.40;99.90;;;;;;5123344;27;20214;-50
2022/10/30 10:57:43;;;;;;;1498.63;571.88;;;16.40;99.90;;;;;;5120996;27;20238;-50
2022/10/30 11:00:15;;;;;;;1661.93;532.80;;;16.40;99.90;;;;;;5125026;27;20223;-52
2022/10/30 11:02:49;;;;;;;1431.95;432.63;;;16.50;99.90;;;;;;5112359;27;20214;-51
2022/10/30 11:05:27;;;;;;;1821.30;566.60;;;16.50;99.90;;;;;;5122405;27;20196;-52
2022/10/30 11:08:01;;;;;;;1784.03;653.13;;;16.60;99.90;;;;;;5127287;27;20239;-51
2022/10/30 11:10:29;;;;;;;1658.85;663.33;;;16.70;99.90;;;;;;5123350;27;20984;-52
2022/10/30 11:12:59;;;;;;;1623.70;567.70;;;16.70;99.90;;;;;;5119911;27;20203;-51
2022/10/30 11:15:36;;;;;;;1455.95;557.15;;;16.80;99.90;;;;;;5122510;27;20231;-52
2022/10/30 11:18:05;;;;;;;1391.53;518.03;;;16.80;99.90;;;;;;5120342;27;20198;-51
2022/10/30 11:20:44;;;;;;;1634.95;678.10;;;16.90;99.90;;;;;;5116433;27;20202;-51
2022/10/30 11:23:38;;;;;;;1398.72;531.08;;;16.90;99.90;;;;;;5111489;27;20298;-51
2022/10/30 11:26:42;;;;;;;1582.95;565.42;;;17.00;99.90;;;;;;5119292;27;20195;-51
2022/10/30 11:29:13;;;;;;;1754.60;573.00;;;17.10;99.90;;;;;;5118184;27;20306;-51
2022/10/30 11:31:43;;;;;;;1715.53;628.20;;;17.10;99.90;;;;;;5118646;27;20330;-53
2022/10/30 11:34:32;;;;;;;1866.95;679.97;;;17.10;99.90;;;;;;5123961;27;20219;-51
2022/10/30 11:37:02;;;;;;;1458.72;635.00;;;17.20;99.90;;;;;;5128004;27;20255;-52
2022/10/30 11:39:32;;;;;;;1495.90;563.92;;;17.20;99.90;;;;;;5126773;27;20321;-51
2022/10/30 11:42:05;;;;;;;1964.78;604.00;;;17.30;99.90;;;;;;5124366;27;20207;-53
2022/10/30 11:44:38;;;;;;;1420.78;575.20;;;17.30;99.90;;;;;;5120871;27;20285;-51
2022/10/30 11:47:07;;;;;;;1999.90;733.78;;;17.30;99.90;;;;;;5126535;27;20238;-51
2022/10/30 11:49:46;;;;;;;1788.78;626.58;;;17.40;99.90;;;;;;5126343;27;20223;-52
2022/10/30 11:52:18;;;;;;;1999.90;680.15;;;17.40;99.90;;;;;;5118932;27;20321;-51
2022/10/30 11:54:48;;;;;;;1955.05;591.05;;;17.40;99.90;;;;;;5123857;27;20710;-52
2022/10/30 11:57:33;;;;;;;1937.20;717.60;;;17.50;99.90;;;;;;5126245;27;20226;-53
2022/10/30 12:00:04;;;;;;;1727.57;625.33;;;17.50;99.90;;;;;;5126654;27;20240;-51
2022/10/30 12:02:42;;;;;;;1984.93;702.13;;;17.50;99.90;;;;;;5125571;27;20907;-50
2022/10/30 12:05:34;;;;;;;1188.60;517.42;;;17.60;99.90;;;;;;5122378;27;20232;-51
2022/10/30 12:08:21;;;;;;;1999.90;594.60;;;17.60;99.90;;;;;;5125407;27;20623;-51
2022/10/30 12:10:59;;;;;;;1671.40;639.70;;;17.60;99.90;;;;;;5125066;27;20203;-52
2022/10/30 12:13:34;;;;;;;1999.90;689.22;;;17.60;99.90;;;;;;5121881;27;20230;-52
2022/10/30 12:16:14;;;;;;;1983.95;655.45;;;17.70;99.90;;;;;;5127649;27;20309;-52
2022/10/30 12:18:53;;;;;;;1676.25;596.80;;;17.70;99.90;;;;;;5128848;27;20223;-51
2022/10/30 12:21:21;;;;;;;1999.90;731.72;;;17.80;99.90;;;;;;5128387;27;20238;-51
2022/10/30 12:23:56;;;;;;;1989.50;668.20;;;17.70;99.90;;;;;;5132123;27;20211;-52
2022/10/30 12:26:26;;;;;;;1999.90;757.35;;;17.70;99.90;;;;;;5127663;27;20282;-52
2022/10/30 12:28:59;;;;;;;1999.90;667.50;;;17.60;99.90;;;;;;5126798;27;20326;-52
2022/10/30 12:31:35;;;;;;;1847.53;609.13;;;17.60;99.90;;;;;;5127417;27;20846;-51